createdAt,value
2022-11-27T00:01:32.845Z,53.40
2022-11-27T00:04:40.121Z,63.40
2022-11-27T00:07:47.017Z,59.90
2022-11-27T00:10:53.874Z,63.50
2022-11-27T00:14:00.686Z,49.40
2022-11-27T00:17:07.155Z,51.20
2022-11-27T00:20:14.398Z,50.50
2022-11-27T00:23:21.615Z,49.80
2022-11-27T00:26:30.022Z,42.90
2022-11-27T00:29:29.850Z,50.60
2022-11-27T00:32:37.016Z,54.00
2022-11-27T00:35:43.538Z,51.30
2022-11-27T00:38:50.790Z,49.40
2022-11-27T00:41:57.618Z,53.90
2022-11-27T00:45:04.455Z,50.80
2022-11-27T00:48:11.137Z,50.40
2022-11-27T00:51:17.609Z,45.40
2022-11-27T00:54:24.460Z,47.30
2022-11-27T00:57:31.394Z,51.10
2022-11-27T01:00:38.289Z,50.60
2022-11-27T01:03:45.117Z,51.00
2022-11-27T01:06:51.609Z,59.00
2022-11-27T01:09:58.890Z,55.30
2022-11-27T01:13:06.241Z,45.40
2022-11-27T01:16:12.808Z,60.20
2022-11-27T01:19:20.128Z,55.90
2022-11-27T01:22:27.471Z,55.90
2022-11-27T01:25:33.924Z,47.80
2022-11-27T01:28:41.011Z,48.50
2022-11-27T01:31:47.953Z,52.70
2022-11-27T01:34:54.832Z,51.80
2022-11-27T01:38:02.154Z,52.30
2022-11-27T01:41:08.890Z,52.20
2022-11-27T01:44:15.674Z,49.90
2022-11-27T01:47:22.704Z,52.10
2022-11-27T01:50:26.619Z,50.70
2022-11-27T01:53:33.605Z,50.40
2022-11-27T01:56:40.357Z,43.30
2022-11-27T01:59:47.526Z,49.60
2022-11-27T02:02:54.449Z,56.20
2022-11-27T02:06:01.276Z,42.00
2022-11-27T02:09:07.975Z,43.40
2022-11-27T02:12:14.434Z,41.50
2022-11-27T02:15:21.626Z,45.10
2022-11-27T02:18:28.507Z,44.20
2022-11-27T02:21:35.247Z,44.50
2022-11-27T02:24:42.763Z,36.20
2022-11-27T02:27:49.299Z,41.10
2022-11-27T02:30:56.438Z,41.80
2022-11-27T02:34:03.741Z,51.00
2022-11-27T02:37:10.233Z,47.00
2022-11-27T02:40:17.332Z,39.30
2022-11-27T02:43:24.480Z,40.00
2022-11-27T02:46:31.122Z,38.10
2022-11-27T02:49:38.041Z,42.40
2022-11-27T02:52:45.171Z,37.30
2022-11-27T02:55:51.750Z,41.90
2022-11-27T02:58:58.490Z,43.70
2022-11-27T03:02:04.973Z,49.80
2022-11-27T03:05:11.749Z,38.50
2022-11-27T03:08:18.961Z,35.20
2022-11-27T03:11:25.344Z,46.90
2022-11-27T03:14:32.482Z,39.20
2022-11-27T03:17:39.573Z,38.70
2022-11-27T03:20:46.033Z,38.30
2022-11-27T03:23:53.271Z,36.60
2022-11-27T03:27:00.124Z,34.60
2022-11-27T03:30:06.968Z,39.50
2022-11-27T03:33:14.353Z,40.50
2022-11-27T03:36:21.213Z,33.10
2022-11-27T03:39:28.115Z,44.50
2022-11-27T03:42:34.645Z,44.90
2022-11-27T03:45:42.045Z,41.70
2022-11-27T03:48:48.925Z,41.50
2022-11-27T03:51:55.477Z,41.40
2022-11-27T03:55:02.766Z,36.80
2022-11-27T03:58:09.687Z,34.30
2022-11-27T04:01:16.498Z,36.30
2022-11-27T04:04:23.717Z,39.60
2022-11-27T04:07:31.041Z,37.30
2022-11-27T04:10:37.577Z,40.00
2022-11-27T04:13:44.887Z,37.20
2022-11-27T04:16:51.812Z,42.00
2022-11-27T04:19:58.748Z,38.20
2022-11-27T04:23:06.199Z,43.30
2022-11-27T04:26:12.900Z,45.30
2022-11-27T04:29:19.719Z,45.00
2022-11-27T04:32:26.540Z,47.30
2022-11-27T04:35:33.811Z,46.60
2022-11-27T04:38:40.696Z,37.30
2022-11-27T04:41:47.420Z,35.80
2022-11-27T04:44:54.601Z,37.60
2022-11-27T04:48:01.472Z,42.50
2022-11-27T04:51:08.410Z,43.00
2022-11-27T04:54:15.602Z,38.70
2022-11-27T04:57:22.462Z,41.10
2022-11-27T05:00:29.228Z,45.80
2022-11-27T05:03:35.994Z,41.70
2022-11-27T05:06:42.473Z,42.70
2022-11-27T05:09:49.823Z,39.10
2022-11-27T05:12:56.753Z,45.50
2022-11-27T05:16:03.677Z,41.00
2022-11-27T05:19:10.318Z,44.10
2022-11-27T05:22:17.044Z,40.70
2022-11-27T05:25:23.965Z,38.20
2022-11-27T05:28:31.325Z,38.80
2022-11-27T05:31:37.897Z,37.50
2022-11-27T05:34:44.935Z,36.80
2022-11-27T05:37:52.154Z,39.40
2022-11-27T05:40:58.705Z,35.90
2022-11-27T05:44:05.992Z,44.10
2022-11-27T05:47:13.076Z,38.90
2022-11-27T05:50:19.536Z,34.00
2022-11-27T05:53:26.717Z,42.20
2022-11-27T05:56:33.688Z,41.30
2022-11-27T05:59:40.196Z,47.40
2022-11-27T06:02:47.711Z,50.10
2022-11-27T06:05:54.563Z,44.50
2022-11-27T06:09:01.458Z,47.90
2022-11-27T06:12:08.589Z,51.90
2022-11-27T06:15:15.348Z,50.20
2022-11-27T06:18:22.199Z,61.80
2022-11-27T06:21:28.669Z,58.40
2022-11-27T06:24:35.671Z,56.30
2022-11-27T06:27:42.529Z,60.20
2022-11-27T06:30:49.039Z,65.30
2022-11-27T06:33:56.029Z,49.80
2022-11-27T06:37:02.852Z,52.50
2022-11-27T06:40:09.589Z,58.10
2022-11-27T06:43:16.810Z,47.10
2022-11-27T06:46:23.270Z,54.50
2022-11-27T06:49:30.145Z,50.80
2022-11-27T06:52:40.338Z,47.60
2022-11-27T06:55:36.801Z,50.20
2022-11-27T06:58:43.901Z,47.50
2022-11-27T07:01:50.850Z,51.70
2022-11-27T07:04:57.592Z,43.20
2022-11-27T07:08:04.971Z,50.90
2022-11-27T07:11:11.414Z,40.00
2022-11-27T07:14:18.642Z,44.00
2022-11-27T07:17:25.790Z,51.10
2022-11-27T07:20:32.574Z,45.00
2022-11-27T07:23:41.561Z,49.80
2022-11-27T07:26:48.955Z,43.60
2022-11-27T07:29:59.477Z,50.40
2022-11-27T07:33:06.931Z,57.00
2022-11-27T07:36:13.894Z,56.10
2022-11-27T07:39:39.342Z,54.00
2022-11-27T07:42:40.638Z,56.10
2022-11-27T07:45:29.104Z,48.00
2022-11-27T07:48:35.926Z,48.30
2022-11-27T07:51:42.816Z,51.50
2022-11-27T07:54:49.333Z,59.10
2022-11-27T07:57:56.618Z,53.40
2022-11-27T08:01:03.627Z,47.20
2022-11-27T08:04:10.700Z,58.00
2022-11-27T08:07:17.821Z,56.10
2022-11-27T08:10:24.648Z,61.00
2022-11-27T08:13:31.540Z,53.20
2022-11-27T08:16:38.577Z,55.80
2022-11-27T08:19:46.998Z,53.70
2022-11-27T08:22:58.120Z,59.40
2022-11-27T08:25:56.890Z,60.00
2022-11-27T08:29:03.750Z,60.90
2022-11-27T08:32:10.514Z,53.50
2022-11-27T08:35:17.444Z,52.90
2022-11-27T08:38:24.730Z,51.40
2022-11-27T08:41:31.593Z,50.90
2022-11-27T08:44:38.207Z,51.00
2022-11-27T08:47:45.373Z,53.00
2022-11-27T08:50:51.884Z,50.30
2022-11-27T08:53:58.985Z,45.30
2022-11-27T08:57:05.852Z,50.20
2022-11-27T09:00:12.314Z,46.30
2022-11-27T09:03:19.495Z,47.60
2022-11-27T09:06:26.671Z,44.80
2022-11-27T09:09:33.242Z,45.60
2022-11-27T09:12:43.403Z,45.90
2022-11-27T09:15:50.494Z,42.50
2022-11-27T09:18:57.296Z,38.40
2022-11-27T09:22:04.496Z,36.20
2022-11-27T09:25:11.445Z,43.50
2022-11-27T09:28:18.218Z,40.00
2022-11-27T09:31:25.494Z,39.60
2022-11-27T09:34:37.160Z,51.10
2022-11-27T09:37:33.739Z,42.20
2022-11-27T09:40:40.549Z,46.80
2022-11-27T09:43:47.468Z,39.20
2022-11-27T09:46:54.707Z,37.20
2022-11-27T09:50:01.511Z,38.90
2022-11-27T09:53:08.540Z,38.50
2022-11-27T09:56:15.569Z,35.70
2022-11-27T09:59:22.384Z,35.20
2022-11-27T10:02:29.408Z,36.30
2022-11-27T10:05:35.992Z,38.20
2022-11-27T10:08:43.321Z,36.80
2022-11-27T10:11:50.242Z,35.30
2022-11-27T10:14:57.034Z,34.00
2022-11-27T10:18:04.163Z,39.30
2022-11-27T10:21:10.725Z,34.80
2022-11-27T10:24:18.008Z,30.50
2022-11-27T10:27:24.712Z,31.50
2022-11-27T10:30:31.167Z,27.40
2022-11-27T10:33:38.007Z,32.60
2022-11-27T10:36:44.645Z,30.70
2022-11-27T10:39:51.246Z,26.10
2022-11-27T10:42:58.156Z,22.00
2022-11-27T10:46:05.034Z,26.30
2022-11-27T10:49:11.876Z,27.00
2022-11-27T10:52:19.096Z,22.30
2022-11-27T10:55:26.027Z,21.00
2022-11-27T10:58:32.569Z,21.70
2022-11-27T11:01:39.529Z,21.20
2022-11-27T11:05:03.299Z,23.30
2022-11-27T11:07:51.056Z,20.80
2022-11-27T11:10:57.839Z,21.90
2022-11-27T11:14:04.840Z,21.70
2022-11-27T11:17:11.774Z,18.00
2022-11-27T11:20:18.529Z,22.30
2022-11-27T11:23:25.312Z,18.40
2022-11-27T11:26:32.282Z,21.50
2022-11-27T11:29:39.204Z,23.10
2022-11-27T11:32:46.037Z,16.70
2022-11-27T11:35:52.604Z,16.80
2022-11-27T11:39:00.034Z,14.70
2022-11-27T11:42:06.951Z,14.40
2022-11-27T11:45:13.968Z,16.50
2022-11-27T11:48:20.909Z,13.90
2022-11-27T11:51:29.464Z,13.50
2022-11-27T11:54:36.127Z,18.10
2022-11-27T11:57:42.939Z,15.50
2022-11-27T12:01:26.052Z,13.20
2022-11-27T12:03:53.596Z,14.90
2022-11-27T12:07:00.790Z,15.50
2022-11-27T12:10:07.259Z,16.00
2022-11-27T12:13:14.468Z,14.50
2022-11-27T12:16:21.841Z,11.60
2022-11-27T12:19:28.233Z,18.60
2022-11-27T12:22:35.281Z,21.20
2022-11-27T12:25:41.983Z,21.80
2022-11-27T12:28:50.379Z,19.50
2022-11-27T12:31:49.707Z,56.90
2022-11-27T12:34:56.216Z,16.10
2022-11-27T12:38:03.495Z,19.90
2022-11-27T12:41:10.697Z,13.50
2022-11-27T12:44:17.236Z,11.40
2022-11-27T12:47:24.345Z,11.80
2022-11-27T12:50:31.247Z,11.20
2022-11-27T12:53:38.067Z,13.80
2022-11-27T12:56:45.338Z,11.20
2022-11-27T12:59:52.098Z,11.60
2022-11-27T13:02:58.891Z,12.30
2022-11-27T13:06:05.498Z,11.30
2022-11-27T13:09:12.751Z,10.00
2022-11-27T13:12:19.531Z,13.40
2022-11-27T13:15:26.491Z,12.70
2022-11-27T13:18:33.613Z,11.40
2022-11-27T13:21:40.424Z,9.80
2022-11-27T13:24:47.241Z,14.60
2022-11-27T13:27:54.204Z,11.70
2022-11-27T13:31:00.754Z,16.20
2022-11-27T13:34:07.864Z,10.60
2022-11-27T13:37:14.706Z,13.10
2022-11-27T13:40:21.505Z,13.60
2022-11-27T13:43:28.748Z,15.20
2022-11-27T13:46:35.286Z,12.90
2022-11-27T13:49:42.097Z,15.00
2022-11-27T13:52:48.939Z,16.40
2022-11-27T13:55:55.479Z,11.50
2022-11-27T13:59:02.635Z,11.80
2022-11-27T14:02:09.275Z,12.80
2022-11-27T14:05:16.417Z,12.30
2022-11-27T14:08:23.520Z,12.30
2022-11-27T14:11:30.109Z,12.00
2022-11-27T14:14:37.232Z,15.50
2022-11-27T14:17:44.553Z,12.20
2022-11-27T14:20:51.109Z,17.50
2022-11-27T14:23:58.344Z,15.10
2022-11-27T14:27:04.813Z,15.90
2022-11-27T14:30:11.975Z,17.50
2022-11-27T14:33:18.575Z,13.20
2022-11-27T14:36:24.896Z,13.80
2022-11-27T14:39:32.006Z,13.30
2022-11-27T14:42:39.371Z,14.60
2022-11-27T14:45:45.847Z,16.50
2022-11-27T14:48:53.097Z,12.00
2022-11-27T14:51:59.815Z,16.40
2022-11-27T14:55:06.578Z,14.20
2022-11-27T14:58:13.911Z,14.00
2022-11-27T15:01:20.935Z,16.20
2022-11-27T15:04:27.896Z,15.70
2022-11-27T15:07:41.941Z,14.20
2022-11-27T15:10:39.023Z,14.50
2022-11-27T15:13:46.239Z,18.10
2022-11-27T15:16:52.931Z,17.50
2022-11-27T15:20:00.251Z,16.30
2022-11-27T15:23:07.073Z,16.50
2022-11-27T15:26:16.816Z,14.20
2022-11-27T15:29:23.725Z,17.90
2022-11-27T15:32:30.125Z,11.90
2022-11-27T15:35:37.335Z,12.00
2022-11-27T15:38:44.556Z,15.50
2022-11-27T15:41:51.016Z,16.10
2022-11-27T15:44:58.247Z,14.30
2022-11-27T15:48:04.979Z,11.90
2022-11-27T15:51:11.439Z,14.90
2022-11-27T15:54:18.738Z,15.70
2022-11-27T15:57:26.100Z,11.30
2022-11-27T16:00:32.621Z,15.00
2022-11-27T16:03:39.719Z,13.60
2022-11-27T16:06:46.867Z,14.80
2022-11-27T16:09:53.332Z,12.30
2022-11-27T16:13:00.493Z,17.40
2022-11-27T16:16:07.341Z,22.70
2022-11-27T16:19:14.102Z,14.00
2022-11-27T16:22:21.294Z,14.40
2022-11-27T16:25:28.123Z,13.10
2022-11-27T16:28:34.953Z,13.10
2022-11-27T16:31:42.354Z,12.80
2022-11-27T16:34:48.785Z,13.60
2022-11-27T16:37:56.085Z,17.50
2022-11-27T16:41:02.685Z,12.10
2022-11-27T16:44:09.478Z,13.20
2022-11-27T16:47:16.556Z,12.80
2022-11-27T16:50:23.046Z,11.70
2022-11-27T16:53:29.656Z,16.40
2022-11-27T16:56:36.594Z,14.80
2022-11-27T16:59:43.291Z,16.80
2022-11-27T17:02:50.123Z,12.30
2022-11-27T17:05:56.808Z,15.20
2022-11-27T17:09:03.900Z,13.70
2022-11-27T17:12:10.687Z,13.70
2022-11-27T17:15:17.481Z,14.10
2022-11-27T17:18:24.828Z,12.50
2022-11-27T17:21:31.745Z,15.70
2022-11-27T17:24:38.673Z,13.00
2022-11-27T17:27:45.992Z,13.80
2022-11-27T17:30:52.396Z,15.90
2022-11-27T17:33:59.764Z,10.20
2022-11-27T17:37:07.180Z,14.20
2022-11-27T17:40:13.705Z,10.60
2022-11-27T17:43:20.946Z,13.30
2022-11-27T17:46:28.103Z,11.40
2022-11-27T17:49:34.624Z,13.80
2022-11-27T17:52:41.732Z,13.00
2022-11-27T17:55:49.228Z,14.70
2022-11-27T17:58:55.756Z,12.40
2022-11-27T18:02:02.998Z,13.90
2022-11-27T18:05:09.808Z,19.30
2022-11-27T18:08:16.628Z,13.80
2022-11-27T18:11:23.908Z,12.80
2022-11-27T18:14:30.709Z,12.20
2022-11-27T18:17:37.629Z,16.30
2022-11-27T18:20:44.681Z,14.50
2022-11-27T18:27:11.053Z,13.80
2022-11-27T18:29:59.910Z,14.90
2022-11-27T18:33:06.803Z,13.60
2022-11-27T18:36:14.095Z,12.90
2022-11-27T18:39:20.863Z,16.80
2022-11-27T18:42:27.565Z,15.90
2022-11-27T18:45:36.116Z,12.50
2022-11-27T18:48:42.954Z,13.90
2022-11-27T18:51:49.874Z,17.90
2022-11-27T18:54:56.755Z,17.40
2022-11-27T18:58:03.526Z,16.10
2022-11-27T19:01:10.111Z,17.30
2022-11-27T19:04:16.846Z,14.20
2022-11-27T19:07:23.696Z,17.90
2022-11-27T19:10:30.557Z,16.60
2022-11-27T19:13:37.230Z,16.80
2022-11-27T19:16:44.457Z,20.00
2022-11-27T19:19:55.124Z,16.80
2022-11-27T19:22:51.329Z,17.40
2022-11-27T19:25:58.470Z,14.50
2022-11-27T19:29:04.970Z,17.50
2022-11-27T19:32:12.327Z,16.60
2022-11-27T19:35:19.509Z,16.40
2022-11-27T19:38:26.063Z,20.20
2022-11-27T19:41:33.303Z,17.20
2022-11-27T19:44:40.462Z,16.80
2022-11-27T19:47:47.746Z,19.30
2022-11-27T19:50:55.438Z,18.90
2022-11-27T19:54:08.401Z,16.50
2022-11-27T19:57:07.491Z,16.40
2022-11-27T20:00:14.635Z,16.40
2022-11-27T20:03:21.325Z,14.80
2022-11-27T20:06:28.386Z,17.50
2022-11-27T20:09:36.316Z,16.10
2022-11-27T20:12:43.018Z,15.80
2022-11-27T20:15:50.418Z,13.90
2022-11-27T20:18:57.958Z,15.70
2022-11-27T20:22:04.713Z,12.90
2022-11-27T20:25:19.365Z,15.70
2022-11-27T20:28:15.248Z,16.90
2022-11-27T20:31:22.178Z,15.00
2022-11-27T20:34:29.543Z,14.30
2022-11-27T20:37:36.411Z,18.20
2022-11-27T20:40:43.390Z,14.60
2022-11-27T20:43:50.351Z,16.00
2022-11-27T20:46:57.612Z,17.90
2022-11-27T20:50:04.363Z,15.00
2022-11-27T20:53:10.931Z,15.70
2022-11-27T20:56:17.905Z,14.10
2022-11-27T20:59:24.893Z,17.00
2022-11-27T21:02:31.797Z,16.60
2022-11-27T21:05:38.621Z,20.40
2022-11-27T21:08:45.136Z,19.60
2022-11-27T21:11:52.065Z,18.30
2022-11-27T21:14:59.278Z,16.60
2022-11-27T21:18:05.905Z,17.60
2022-11-27T21:21:13.004Z,15.10
2022-11-27T21:24:20.253Z,18.20
2022-11-27T21:27:26.799Z,16.40
2022-11-27T21:30:34.185Z,13.10
2022-11-27T21:33:40.882Z,14.00
2022-11-27T21:36:47.986Z,16.40
2022-11-27T21:39:55.017Z,15.80
2022-11-27T21:43:01.877Z,16.60
2022-11-27T21:46:08.926Z,13.90
2022-11-27T21:49:16.153Z,13.70
2022-11-27T21:52:22.950Z,16.10
2022-11-27T21:55:29.870Z,14.10
2022-11-27T21:58:36.732Z,13.60
2022-11-27T22:01:43.754Z,16.10
2022-11-27T22:04:50.553Z,16.10
2022-11-27T22:07:57.508Z,13.40
2022-11-27T22:11:04.474Z,14.80
2022-11-27T22:14:11.885Z,15.40
2022-11-27T22:17:18.811Z,15.50
2022-11-27T22:20:25.997Z,16.90
2022-11-27T22:23:32.445Z,12.70
2022-11-27T22:26:39.485Z,15.30
2022-11-27T22:29:46.537Z,13.30
2022-11-27T22:32:53.067Z,10.70
2022-11-27T22:36:00.192Z,12.80
2022-11-27T22:39:07.140Z,12.40
2022-11-27T22:42:14.159Z,13.10
2022-11-27T22:45:21.399Z,13.20
2022-11-27T22:48:27.950Z,14.00
2022-11-27T22:51:34.930Z,14.00
2022-11-27T22:54:42.521Z,12.50
2022-11-27T22:57:49.239Z,14.10
2022-11-27T23:00:56.172Z,12.20
2022-11-27T23:04:03.616Z,13.00
2022-11-27T23:07:10.071Z,10.00
2022-11-27T23:10:16.905Z,11.20
2022-11-27T23:13:23.735Z,11.30
2022-11-27T23:16:30.614Z,10.60
2022-11-27T23:19:37.762Z,12.50
2022-11-27T23:22:44.665Z,9.90
2022-11-27T23:25:51.557Z,10.60
2022-11-27T23:28:58.986Z,10.80
2022-11-27T23:32:05.814Z,11.90
2022-11-27T23:35:12.708Z,10.10
2022-11-27T23:38:19.679Z,11.40
2022-11-27T23:41:26.918Z,9.20
2022-11-27T23:44:33.929Z,10.30
2022-11-27T23:47:41.259Z,8.40
2022-11-27T23:50:48.310Z,9.50
2022-11-27T23:53:55.300Z,8.90
2022-11-27T23:57:02.219Z,8.30
